Time;durP1;ratioP1;P1;durP2;ratioP2;P2;SDS_P1;SDS_P2;PMS_P1;PMS_P2;Temp;Humidity;BMP_temperature;BMP_pressure;BME280_temperature;BME280_humidity;BME280_pressure;Samples;Min_cycle;Max_cycle;Signal;HPM_P1;HPM_P2
2021/01/15 00:01:06;;;;;;;15.70;7.60;;;-4.10;99.90;;;;;;4365692;32;20175;-72
2021/01/15 00:03:34;;;;;;;15.47;7.50;;;-4.10;99.90;;;;;;4364150;32;20236;-72
2021/01/15 00:06:05;;;;;;;14.00;7.13;;;-4.10;99.90;;;;;;4364160;32;20132;-72
2021/01/15 00:08:39;;;;;;;12.70;6.87;;;-4.20;99.90;;;;;;4364194;32;20152;-72
2021/01/15 00:11:14;;;;;;;14.57;6.63;;;-4.40;99.90;;;;;;4363999;32;20213;-71
2021/01/15 00:13:40;;;;;;;15.30;6.87;;;-4.50;99.90;;;;;;4364278;32;20189;-71
2021/01/15 00:16:15;;;;;;;16.10;7.77;;;-4.70;99.90;;;;;;4363999;32;20136;-71
2021/01/15 00:18:42;;;;;;;17.83;7.53;;;-4.70;99.90;;;;;;4363587;32;20140;-72
2021/01/15 00:21:08;;;;;;;13.80;6.90;;;-4.80;99.90;;;;;;4365367;32;20389;-72
2021/01/15 00:23:35;;;;;;;15.67;6.83;;;-5.00;99.90;;;;;;4365434;32;20144;-71
2021/01/15 00:26:01;;;;;;;16.70;6.93;;;-5.00;99.90;;;;;;4365346;32;20351;-72
2021/01/15 00:28:28;;;;;;;15.03;7.17;;;-5.10;99.90;;;;;;4365739;32;20190;-71
2021/01/15 00:30:55;;;;;;;15.47;7.43;;;-5.20;99.90;;;;;;4364046;33;20132;-72
2021/01/15 00:33:21;;;;;;;14.17;7.13;;;-5.20;99.90;;;;;;4363963;33;20447;-71
2021/01/15 00:35:48;;;;;;;14.27;7.20;;;-5.20;99.90;;;;;;4339144;33;20160;-72
2021/01/15 00:38:15;;;;;;;15.53;7.73;;;-5.30;99.90;;;;;;4365446;33;20281;-72
2021/01/15 00:40:41;;;;;;;18.43;7.97;;;-5.40;99.90;;;;;;4363803;33;20388;-72
2021/01/15 00:43:08;;;;;;;17.43;7.90;;;-5.50;99.90;;;;;;4364142;33;20186;-72
2021/01/15 00:45:34;;;;;;;17.23;7.80;;;-5.60;99.90;;;;;;4363470;33;20475;-71
2021/01/15 00:48:02;;;;;;;14.43;7.37;;;-5.60;99.90;;;;;;4363892;33;20162;-72
2021/01/15 00:50:28;;;;;;;20.37;8.30;;;-5.50;99.90;;;;;;4365335;33;20190;-72
2021/01/15 00:52:55;;;;;;;16.77;7.97;;;-5.50;99.90;;;;;;4364447;33;20178;-72
2021/01/15 00:55:21;;;;;;;16.90;7.97;;;-5.60;99.90;;;;;;4365283;33;20187;-72
2021/01/15 00:57:48;;;;;;;15.30;7.47;;;-5.60;99.90;;;;;;4365516;33;20132;-72
2021/01/15 01:00:15;;;;;;;16.13;8.03;;;-5.60;99.90;;;;;;4365204;33;20157;-72
2021/01/15 01:02:42;;;;;;;15.13;7.27;;;-5.70;99.90;;;;;;4365185;33;20500;-70
2021/01/15 01:05:11;;;;;;;16.17;7.00;;;-5.80;99.90;;;;;;4364752;33;20148;-70
2021/01/15 01:07:43;;;;;;;16.97;7.50;;;-5.90;99.90;;;;;;4365165;32;20144;-70
2021/01/15 01:10:11;;;;;;;13.60;6.80;;;-6.00;99.90;;;;;;4366392;32;20209;-71
2021/01/15 01:12:42;;;;;;;16.73;7.10;;;-6.20;99.90;;;;;;4368079;32;20143;-71
2021/01/15 01:15:13;;;;;;;15.63;7.37;;;-6.20;99.90;;;;;;4366612;32;20354;-71
2021/01/15 01:17:40;;;;;;;15.80;7.37;;;-6.30;99.90;;;;;;4366562;32;20186;-71
2021/01/15 01:20:09;;;;;;;16.70;7.40;;;-6.30;99.90;;;;;;4366526;32;20227;-71
2021/01/15 01:22:35;;;;;;;16.40;6.67;;;-6.30;99.90;;;;;;4366195;32;20399;-71
2021/01/15 01:25:02;;;;;;;14.30;6.90;;;-6.30;99.90;;;;;;4364444;32;20179;-72
2021/01/15 01:27:29;;;;;;;12.57;6.70;;;-6.30;99.90;;;;;;4364486;32;20420;-72
2021/01/15 01:29:55;;;;;;;14.97;6.73;;;-6.40;99.90;;;;;;4365136;32;20180;-72
2021/01/15 01:32:21;;;;;;;17.37;7.17;;;-6.40;99.90;;;;;;4366669;32;20210;-71
2021/01/15 01:34:48;;;;;;;14.83;6.90;;;-6.50;99.90;;;;;;4364704;32;20411;-72
2021/01/15 01:37:15;;;;;;;16.37;6.73;;;-6.50;99.90;;;;;;4364948;32;20144;-71
2021/01/15 01:39:41;;;;;;;16.17;7.10;;;-6.50;99.90;;;;;;4366006;32;20178;-72
2021/01/15 01:42:08;;;;;;;12.83;6.80;;;-6.50;99.90;;;;;;4366236;32;20202;-71
2021/01/15 01:44:34;;;;;;;14.63;6.83;;;-6.60;99.90;;;;;;4366119;32;20191;-71
2021/01/15 01:47:00;;;;;;;12.67;6.50;;;-6.50;99.90;;;;;;4366186;32;20143;-71
2021/01/15 01:49:27;;;;;;;16.50;7.20;;;-6.50;99.90;;;;;;4366740;32;20159;-72
2021/01/15 01:51:57;;;;;;;13.80;6.30;;;-6.50;99.90;;;;;;4366146;32;20235;-72
2021/01/15 01:54:25;;;;;;;14.60;6.63;;;-6.60;99.90;;;;;;4365406;32;20510;-72
2021/01/15 01:56:51;;;;;;;16.37;6.67;;;-6.60;99.90;;;;;;4367433;32;20455;-72
2021/01/15 01:59:18;;;;;;;14.93;5.73;;;-6.70;99.90;;;;;;4367471;32;20166;-72
2021/01/15 02:01:44;;;;;;;12.73;5.80;;;-6.70;99.90;;;;;;4365689;32;20278;-71
2021/01/15 02:04:11;;;;;;;13.70;6.17;;;-6.70;99.90;;;;;;4365823;32;20407;-72
2021/01/15 02:06:40;;;;;;;13.33;6.47;;;-6.70;99.90;;;;;;4367293;32;20140;-71
2021/01/15 02:09:07;;;;;;;13.73;6.27;;;-6.70;99.90;;;;;;4365464;32;20174;-72
2021/01/15 02:11:34;;;;;;;13.07;5.50;;;-6.60;99.90;;;;;;4365344;32;20208;-72
2021/01/15 02:14:20;;;;;;;11.47;5.87;;;-6.60;99.90;;;;;;4367123;32;20158;-71
2021/01/15 02:16:50;;;;;;;15.47;6.20;;;-6.60;99.90;;;;;;4367296;32;20132;-71
2021/01/15 02:19:44;;;;;;;11.83;5.63;;;-6.50;99.90;;;;;;4358810;32;20148;-72
2021/01/15 02:22:16;;;;;;;13.83;5.87;;;-6.50;99.90;;;;;;4365534;32;20152;-72
2021/01/15 02:24:49;;;;;;;14.13;6.50;;;-6.40;99.90;;;;;;4367093;32;20156;-72
2021/01/15 02:27:50;;;;;;;12.47;5.73;;;-6.40;99.90;;;;;;4366886;32;20132;-72
2021/01/15 02:30:22;;;;;;;14.23;6.70;;;-6.40;99.90;;;;;;4367024;32;20144;-71
2021/01/15 02:32:53;;;;;;;14.47;6.33;;;-6.30;99.90;;;;;;4352201;33;20183;-71
2021/01/15 02:35:33;;;;;;;15.10;6.63;;;-6.20;99.90;;;;;;4366280;32;20463;-71
2021/01/15 02:38:21;;;;;;;13.97;6.60;;;-6.20;99.90;;;;;;4365573;32;20277;-72
2021/01/15 02:41:16;;;;;;;15.20;6.53;;;-6.10;99.90;;;;;;4365449;32;20144;-71
2021/01/15 02:43:47;;;;;;;17.33;6.50;;;-6.00;99.90;;;;;;4365336;32;20231;-72
2021/01/15 02:46:16;;;;;;;12.17;6.20;;;-6.00;99.90;;;;;;4366324;32;20168;-72
2021/01/15 02:48:47;;;;;;;12.73;6.20;;;-6.10;99.90;;;;;;4365672;32;20211;-72
2021/01/15 02:51:14;;;;;;;11.60;5.93;;;-6.10;99.90;;;;;;4365143;32;20208;-72
2021/01/15 02:53:40;;;;;;;15.60;6.53;;;-5.90;99.90;;;;;;4365526;32;20179;-72
2021/01/15 02:56:07;;;;;;;13.03;6.33;;;-5.90;99.90;;;;;;4365239;32;20472;-72
2021/01/15 02:58:34;;;;;;;18.80;6.57;;;-5.90;99.90;;;;;;4351112;33;20207;-72
2021/01/15 03:01:00;;;;;;;13.70;6.93;;;-5.80;99.90;;;;;;4366091;32;20350;-72
2021/01/15 03:03:34;;;;;;;15.43;7.23;;;-5.80;99.90;;;;;;4366181;32;20144;-72
2021/01/15 03:06:11;;;;;;;17.83;8.20;;;-5.80;99.90;;;;;;4366555;32;20141;-71
2021/01/15 03:08:38;;;;;;;16.33;8.73;;;-5.70;99.90;;;;;;4366234;32;20158;-71
2021/01/15 03:11:06;;;;;;;19.90;8.67;;;-5.70;99.90;;;;;;4366507;32;20432;-71
2021/01/15 03:13:35;;;;;;;17.67;8.27;;;-5.90;99.90;;;;;;4364407;32;20164;-71
2021/01/15 03:16:03;;;;;;;15.77;7.80;;;-6.10;99.90;;;;;;4364850;32;20207;-72
2021/01/15 03:18:34;;;;;;;19.20;8.70;;;-6.30;99.90;;;;;;4366298;32;20398;-71
2021/01/15 03:21:01;;;;;;;17.67;8.07;;;-6.40;99.90;;;;;;4365085;32;20186;-71
2021/01/15 03:23:36;;;;;;;18.00;8.20;;;-6.30;99.90;;;;;;4365710;32;20215;-72
2021/01/15 03:26:03;;;;;;;16.40;7.90;;;-6.20;99.90;;;;;;4364807;32;20167;-71
2021/01/15 03:28:29;;;;;;;18.63;8.30;;;-6.20;99.90;;;;;;4366100;32;20400;-71
2021/01/15 03:30:56;;;;;;;18.33;8.83;;;-6.40;99.90;;;;;;4365681;32;20223;-72
2021/01/15 03:33:23;;;;;;;17.30;8.53;;;-6.30;99.90;;;;;;4366136;32;20136;-71
2021/01/15 03:35:50;;;;;;;17.23;8.33;;;-6.40;99.90;;;;;;4366106;32;20152;-71
2021/01/15 03:38:16;;;;;;;17.13;7.90;;;-6.20;99.90;;;;;;4364665;32;20190;-72
2021/01/15 03:40:45;;;;;;;16.17;7.47;;;-6.10;99.90;;;;;;4365992;32;20451;-72
2021/01/15 03:43:14;;;;;;;20.90;8.13;;;-6.00;99.90;;;;;;4364404;32;20216;-71
2021/01/15 03:45:44;;;;;;;18.87;8.47;;;-6.00;99.90;;;;;;4364620;32;20411;-71
2021/01/15 03:48:12;;;;;;;18.27;8.50;;;-6.00;99.90;;;;;;4366679;32;20190;-71
2021/01/15 03:50:39;;;;;;;16.80;8.10;;;-5.90;99.90;;;;;;4363941;32;20369;-72
2021/01/15 03:53:06;;;;;;;13.03;7.20;;;-5.90;99.90;;;;;;4365079;32;20153;-72
2021/01/15 03:55:32;;;;;;;19.70;7.47;;;-6.10;99.90;;;;;;4365809;32;20159;-72
2021/01/15 03:57:59;;;;;;;14.57;6.77;;;-6.10;99.90;;;;;;4365802;32;20161;-72
2021/01/15 04:00:26;;;;;;;13.30;6.40;;;-6.20;99.90;;;;;;4365993;32;20156;-72
2021/01/15 04:02:53;;;;;;;13.10;6.30;;;-6.40;99.90;;;;;;4364249;32;20137;-72
2021/01/15 04:05:19;;;;;;;14.57;6.50;;;-6.20;99.90;;;;;;4365771;32;20224;-71
2021/01/15 04:07:46;;;;;;;14.50;6.23;;;-6.30;99.90;;;;;;4364314;32;20144;-71
2021/01/15 04:10:16;;;;;;;14.37;6.50;;;-6.30;99.90;;;;;;4365726;32;20199;-71
2021/01/15 04:12:43;;;;;;;15.67;6.00;;;-6.30;99.90;;;;;;4364090;32;20227;-71
2021/01/15 04:15:12;;;;;;;12.97;6.13;;;-6.30;99.90;;;;;;4364252;32;20136;-71
2021/01/15 04:17:39;;;;;;;14.17;5.90;;;-6.30;99.90;;;;;;4365545;32;20170;-71
2021/01/15 04:20:08;;;;;;;15.13;6.80;;;-6.40;99.90;;;;;;4365843;32;20182;-71
2021/01/15 04:22:36;;;;;;;14.50;7.17;;;-6.40;99.90;;;;;;4364088;32;20160;-71
2021/01/15 04:25:03;;;;;;;15.47;6.80;;;-6.40;99.90;;;;;;4365553;32;20200;-71
2021/01/15 04:27:31;;;;;;;18.47;6.90;;;-6.50;99.90;;;;;;4364057;32;20128;-71
2021/01/15 04:29:58;;;;;;;18.33;7.53;;;-6.60;99.90;;;;;;4364095;33;20158;-71
2021/01/15 04:32:25;;;;;;;17.00;6.70;;;-6.70;99.90;;;;;;4365496;33;20186;-71
2021/01/15 04:34:52;;;;;;;15.83;7.00;;;-6.80;99.90;;;;;;4365539;33;20132;-71
2021/01/15 04:37:18;;;;;;;17.37;7.07;;;-6.60;99.90;;;;;;4364280;33;20331;-71
2021/01/15 04:39:45;;;;;;;16.00;7.47;;;-6.60;99.90;;;;;;4364070;33;20171;-71
2021/01/15 04:42:15;;;;;;;15.97;6.87;;;-6.60;99.90;;;;;;4364218;32;20136;-72
2021/01/15 04:44:42;;;;;;;15.50;7.20;;;-6.60;99.90;;;;;;4368371;32;20136;-71
2021/01/15 04:47:09;;;;;;;18.67;7.50;;;-6.60;99.90;;;;;;4368438;32;20136;-71
2021/01/15 04:49:36;;;;;;;16.87;6.93;;;-6.60;99.90;;;;;;4368351;32;20414;-71
2021/01/15 04:52:03;;;;;;;17.63;7.57;;;-6.50;99.90;;;;;;4366918;32;20152;-71
2021/01/15 04:54:37;;;;;;;15.07;6.97;;;-6.50;99.90;;;;;;4366199;32;20575;-72
2021/01/15 04:57:07;;;;;;;16.30;7.47;;;-6.60;99.90;;;;;;4367129;32;20175;-72
2021/01/15 04:59:48;;;;;;;19.00;7.87;;;-6.60;99.90;;;;;;4366800;32;20190;-72
2021/01/15 05:02:16;;;;;;;18.53;8.13;;;-6.60;99.90;;;;;;4366666;32;20180;-72
2021/01/15 05:04:43;;;;;;;18.57;7.63;;;-6.60;99.90;;;;;;4363583;33;20163;-72
2021/01/15 05:07:12;;;;;;;17.07;7.47;;;-6.50;99.90;;;;;;4368068;32;20135;-72
2021/01/15 05:09:46;;;;;;;16.63;7.80;;;-6.60;99.90;;;;;;4366705;32;20203;-72
2021/01/15 05:12:18;;;;;;;16.77;7.40;;;-6.80;99.90;;;;;;4368153;32;20199;-72
2021/01/15 05:14:49;;;;;;;17.07;7.43;;;-6.70;99.90;;;;;;4368378;32;20194;-72
2021/01/15 05:17:17;;;;;;;18.50;7.53;;;-6.80;99.90;;;;;;4367932;32;20136;-72
2021/01/15 05:19:44;;;;;;;15.73;7.03;;;-6.80;99.90;;;;;;4368021;32;20159;-72
2021/01/15 05:22:12;;;;;;;16.50;6.47;;;-6.60;99.90;;;;;;4366460;32;20159;-72
2021/01/15 05:24:39;;;;;;;15.10;6.70;;;-6.60;99.90;;;;;;4367899;32;20156;-72
2021/01/15 05:30:29;;;;;;;14.13;7.37;;;-6.60;99.90;;;;;;4367972;32;20291;-71
2021/01/15 05:32:59;;;;;;;16.37;7.43;;;-6.60;99.90;;;;;;4305656;33;20193;-72
2021/01/15 05:35:46;;;;;;;15.47;7.20;;;-6.60;99.90;;;;;;4306885;33;20169;-72
2021/01/15 05:38:17;;;;;;;15.07;6.50;;;-6.80;99.90;;;;;;4305599;33;20176;-72
2021/01/15 05:40:49;;;;;;;14.87;6.60;;;-6.80;99.90;;;;;;4306924;33;20368;-72
2021/01/15 05:43:32;;;;;;;14.90;7.00;;;-6.60;99.90;;;;;;4319766;33;20153;-72
2021/01/15 05:46:16;;;;;;;13.97;6.57;;;-6.60;99.90;;;;;;4321395;33;20141;-72
2021/01/15 05:48:45;;;;;;;14.80;6.47;;;-6.60;99.90;;;;;;4321364;33;20495;-72
2021/01/15 05:51:32;;;;;;;16.00;6.90;;;-6.50;99.90;;;;;;4320785;33;20192;-72
2021/01/15 05:53:59;;;;;;;14.90;6.67;;;-6.50;99.90;;;;;;4319562;33;20145;-72
2021/01/15 05:56:37;;;;;;;16.43;6.80;;;-6.60;99.90;;;;;;4319292;33;20438;-72
2021/01/15 05:59:14;;;;;;;19.13;7.33;;;-6.60;99.90;;;;;;4321467;33;20254;-72
2021/01/15 06:01:56;;;;;;;16.80;7.33;;;-6.60;99.90;;;;;;4320815;33;20163;-71
2021/01/15 06:04:36;;;;;;;17.37;6.83;;;-6.60;99.90;;;;;;4320285;33;20199;-72
2021/01/15 06:07:09;;;;;;;15.23;6.40;;;-6.60;99.90;;;;;;4319408;33;20196;-72
2021/01/15 06:09:37;;;;;;;15.73;6.80;;;-6.50;99.90;;;;;;4347182;33;20475;-72
2021/01/15 06:12:04;;;;;;;15.03;6.77;;;-6.40;99.90;;;;;;4365798;32;20144;-72
2021/01/15 06:14:31;;;;;;;14.63;6.90;;;-6.30;99.90;;;;;;4367202;32;20532;-73
2021/01/15 06:17:03;;;;;;;12.77;6.53;;;-6.30;99.90;;;;;;4365828;32;20458;-72
2021/01/15 06:19:49;;;;;;;17.13;6.37;;;-6.20;99.90;;;;;;4365741;32;20207;-72
2021/01/15 06:22:43;;;;;;;12.80;6.27;;;-6.40;99.90;;;;;;4366494;32;20160;-72
2021/01/15 06:25:33;;;;;;;13.23;6.30;;;-6.40;99.90;;;;;;4367560;32;20387;-72
2021/01/15 06:28:01;;;;;;;19.67;7.23;;;-6.30;99.90;;;;;;4367101;32;20137;-72
2021/01/15 06:30:29;;;;;;;13.40;6.60;;;-6.20;99.90;;;;;;4367095;32;20178;-73
2021/01/15 06:33:10;;;;;;;15.73;6.70;;;-6.10;99.90;;;;;;4365496;32;20132;-73
2021/01/15 06:35:39;;;;;;;16.93;7.20;;;-6.20;99.90;;;;;;4365237;32;20199;-72
2021/01/15 06:38:10;;;;;;;13.97;6.37;;;-6.20;99.90;;;;;;4365296;32;20503;-72
2021/01/15 06:40:44;;;;;;;14.70;6.83;;;-6.30;99.90;;;;;;4363630;32;20424;-72
2021/01/15 06:43:19;;;;;;;17.03;6.83;;;-6.20;99.90;;;;;;4363969;32;20638;-72
2021/01/15 06:45:52;;;;;;;18.20;7.07;;;-6.10;99.90;;;;;;4364845;32;20152;-74
2021/01/15 06:48:21;;;;;;;16.93;7.47;;;-6.30;99.90;;;;;;4364343;32;20461;-73
2021/01/15 06:50:49;;;;;;;18.80;7.57;;;-6.30;99.90;;;;;;4364894;32;20149;-72
2021/01/15 06:53:32;;;;;;;17.53;7.70;;;-6.30;99.90;;;;;;4365731;32;20152;-73
2021/01/15 06:56:00;;;;;;;18.27;7.33;;;-6.40;99.90;;;;;;4366225;32;20132;-72
2021/01/15 06:58:31;;;;;;;13.60;6.97;;;-6.30;99.90;;;;;;4365277;32;20163;-72
2021/01/15 07:01:20;;;;;;;18.03;7.80;;;-6.50;99.90;;;;;;4365255;32;20145;-72
2021/01/15 07:03:50;;;;;;;21.30;8.60;;;-6.60;99.90;;;;;;4366566;32;20366;-71
2021/01/15 07:06:34;;;;;;;18.93;7.77;;;-6.70;99.90;;;;;;4364486;32;20152;-71
2021/01/15 07:09:04;;;;;;;18.43;8.00;;;-6.60;99.90;;;;;;4365240;32;20158;-72
2021/01/15 07:11:31;;;;;;;17.63;7.60;;;-6.50;99.90;;;;;;4366429;32;20136;-72
2021/01/15 07:14:03;;;;;;;15.83;7.60;;;-6.40;99.90;;;;;;4366000;32;20133;-71
2021/01/15 07:16:35;;;;;;;17.53;7.83;;;-6.40;99.90;;;;;;4366335;32;20145;-71
2021/01/15 07:19:20;;;;;;;15.63;8.17;;;-6.30;99.90;;;;;;4364928;32;20497;-72
2021/01/15 07:22:01;;;;;;;21.90;8.47;;;-6.20;99.90;;;;;;4364344;32;20128;-72
2021/01/15 07:24:33;;;;;;;20.60;8.40;;;-6.10;99.90;;;;;;4365026;32;20391;-71
2021/01/15 07:27:00;;;;;;;20.83;8.50;;;-6.00;99.90;;;;;;4364676;32;20186;-71
2021/01/15 07:29:29;;;;;;;21.07;8.43;;;-6.10;99.90;;;;;;4365245;32;20136;-71
2021/01/15 07:32:05;;;;;;;18.73;8.47;;;-6.10;99.90;;;;;;4366224;32;20334;-72
2021/01/15 07:34:35;;;;;;;17.97;7.47;;;-6.10;99.90;;;;;;4364633;32;20190;-72
2021/01/15 07:37:18;;;;;;;19.27;8.40;;;-6.20;99.90;;;;;;4365681;32;20141;-73
2021/01/15 07:40:16;;;;;;;18.70;8.27;;;-6.10;99.90;;;;;;4365555;32;20176;-72
2021/01/15 07:43:00;;;;;;;18.07;7.73;;;-5.90;99.90;;;;;;4363806;32;20431;-72
2021/01/15 07:45:27;;;;;;;18.03;8.00;;;-6.00;99.90;;;;;;4349393;33;20247;-73
2021/01/15 07:48:14;;;;;;;19.50;9.33;;;-5.90;99.90;;;;;;4365129;32;20211;-73
2021/01/15 07:50:42;;;;;;;17.90;8.27;;;-5.70;99.90;;;;;;4357854;32;20175;-73
2021/01/15 07:53:26;;;;;;;16.53;7.47;;;-5.70;99.90;;;;;;4364991;32;20215;-73
2021/01/15 07:55:55;;;;;;;15.77;7.23;;;-5.80;99.90;;;;;;4363888;32;20136;-73
2021/01/15 07:58:44;;;;;;;17.63;7.63;;;-5.80;99.90;;;;;;4363282;32;20459;-74
2021/01/15 08:01:13;;;;;;;21.57;8.53;;;-5.80;99.90;;;;;;4365899;32;20163;-72
2021/01/15 08:03:41;;;;;;;20.27;8.20;;;-5.80;99.90;;;;;;4365921;32;20144;-72
2021/01/15 08:06:12;;;;;;;20.17;7.57;;;-5.70;99.90;;;;;;4363980;32;20175;-73
2021/01/15 08:09:05;;;;;;;17.17;8.07;;;-5.70;99.90;;;;;;4365649;32;20166;-73
2021/01/15 08:11:34;;;;;;;19.70;8.67;;;-5.80;99.90;;;;;;4365365;32;20159;-74
2021/01/15 08:14:14;;;;;;;22.13;8.87;;;-5.60;99.90;;;;;;4363805;32;20128;-73
2021/01/15 08:16:45;;;;;;;17.70;7.93;;;-5.70;99.90;;;;;;4365026;32;20141;-73
2021/01/15 08:19:14;;;;;;;20.13;8.33;;;-5.70;99.90;;;;;;4363390;32;20227;-74
2021/01/15 08:21:41;;;;;;;16.93;7.50;;;-5.60;99.90;;;;;;4365039;32;20148;-73
2021/01/15 08:24:08;;;;;;;17.73;7.93;;;-5.60;99.90;;;;;;4364867;32;20238;-73
2021/01/15 08:26:45;;;;;;;19.33;8.27;;;-5.50;99.90;;;;;;4363504;32;20174;-73
2021/01/15 08:29:12;;;;;;;19.17;8.20;;;-5.40;99.90;;;;;;4365055;32;20136;-73
2021/01/15 08:31:38;;;;;;;21.50;8.67;;;-5.30;99.90;;;;;;4364926;33;20145;-73
2021/01/15 08:34:13;;;;;;;21.80;8.67;;;-5.30;99.90;;;;;;4364985;33;20167;-74
2021/01/15 08:36:44;;;;;;;22.27;9.57;;;-5.40;99.90;;;;;;4350928;33;20163;-73
2021/01/15 08:39:11;;;;;;;30.17;11.80;;;-5.30;99.90;;;;;;4363496;33;20190;-73
2021/01/15 08:41:39;;;;;;;37.63;14.80;;;-5.30;99.90;;;;;;4364841;33;20140;-73
2021/01/15 08:44:07;;;;;;;39.77;16.90;;;-5.30;99.90;;;;;;4362938;33;20174;-72
2021/01/15 08:46:34;;;;;;;45.20;17.27;;;-5.10;99.90;;;;;;4364751;33;20223;-73
2021/01/15 08:49:07;;;;;;;38.77;16.30;;;-5.30;99.90;;;;;;4363711;33;20160;-73
2021/01/15 08:51:40;;;;;;;37.33;15.03;;;-5.10;99.90;;;;;;4363532;33;20281;-73
2021/01/15 08:54:09;;;;;;;36.77;15.10;;;-5.10;99.90;;;;;;4363290;33;20252;-73
2021/01/15 08:56:40;;;;;;;37.47;14.40;;;-5.10;99.90;;;;;;4364476;33;20163;-73
2021/01/15 08:59:10;;;;;;;31.43;12.83;;;-5.10;99.90;;;;;;4363310;33;20136;-73
2021/01/15 09:01:43;;;;;;;28.80;11.70;;;-5.20;99.90;;;;;;4364744;33;20129;-73
2021/01/15 09:04:12;;;;;;;28.57;11.93;;;-5.10;99.90;;;;;;4363242;33;20139;-73
2021/01/15 09:06:40;;;;;;;27.40;11.20;;;-5.00;99.90;;;;;;4364573;33;20211;-73
2021/01/15 09:09:10;;;;;;;23.97;10.57;;;-5.00;99.90;;;;;;4364650;33;20145;-75
2021/01/15 09:11:38;;;;;;;27.43;11.53;;;-4.90;99.90;;;;;;4364635;33;20132;-75
2021/01/15 09:14:12;;;;;;;23.90;10.67;;;-4.80;99.90;;;;;;4362731;33;20196;-74
2021/01/15 09:16:40;;;;;;;25.43;10.60;;;-4.80;99.90;;;;;;4365231;33;20484;-73
2021/01/15 09:19:12;;;;;;;29.37;11.73;;;-4.90;99.90;;;;;;4363118;33;20450;-72
2021/01/15 09:22:00;;;;;;;26.27;11.33;;;-4.90;99.90;;;;;;4364933;33;20167;-72
2021/01/15 09:24:28;;;;;;;27.93;12.03;;;-4.80;99.90;;;;;;4365020;33;20162;-73
2021/01/15 09:27:00;;;;;;;27.30;11.97;;;-4.90;99.90;;;;;;4363240;33;20491;-73
2021/01/15 09:29:27;;;;;;;28.30;12.37;;;-4.80;99.90;;;;;;4364261;32;20155;-73
2021/01/15 09:31:55;;;;;;;26.73;12.20;;;-4.70;99.90;;;;;;4366151;32;20179;-72
2021/01/15 09:34:24;;;;;;;29.33;12.97;;;-4.70;99.90;;;;;;4367139;32;20136;-72
2021/01/15 09:36:51;;;;;;;23.67;11.87;;;-4.80;99.90;;;;;;4367150;32;20190;-72
2021/01/15 09:39:22;;;;;;;26.23;12.40;;;-4.80;99.90;;;;;;4365699;32;20191;-72
2021/01/15 09:41:54;;;;;;;27.70;11.87;;;-4.70;99.90;;;;;;4367566;32;20136;-72
2021/01/15 09:44:23;;;;;;;24.57;11.27;;;-4.70;99.90;;;;;;4365670;32;20131;-73
2021/01/15 09:46:54;;;;;;;24.80;11.70;;;-4.70;99.90;;;;;;4367093;32;20392;-72
2021/01/15 09:49:22;;;;;;;27.67;10.80;;;-4.70;99.90;;;;;;4367085;32;20190;-72
2021/01/15 09:51:50;;;;;;;24.93;10.87;;;-4.80;99.90;;;;;;4366134;32;20453;-72
2021/01/15 09:54:17;;;;;;;21.83;10.17;;;-4.80;99.90;;;;;;4365482;32;20152;-72
2021/01/15 09:56:44;;;;;;;28.67;10.93;;;-4.80;99.90;;;;;;4367105;32;20137;-72
2021/01/15 09:59:14;;;;;;;23.07;10.47;;;-4.60;99.90;;;;;;4367282;32;20449;-72
2021/01/15 10:01:41;;;;;;;21.90;9.63;;;-4.60;99.90;;;;;;4367031;32;20167;-72
2021/01/15 10:04:08;;;;;;;22.37;10.67;;;-4.50;99.90;;;;;;4365828;32;20159;-72
2021/01/15 10:06:38;;;;;;;27.70;11.23;;;-4.30;99.90;;;;;;4367341;32;20172;-72
2021/01/15 10:09:06;;;;;;;20.13;9.93;;;-4.30;99.90;;;;;;4365872;32;20210;-72
2021/01/15 10:11:35;;;;;;;22.27;10.10;;;-4.30;99.90;;;;;;4367221;32;20426;-72
2021/01/15 10:14:04;;;;;;;22.60;9.90;;;-4.10;99.90;;;;;;4365426;32;20167;-72
2021/01/15 10:16:31;;;;;;;23.23;10.47;;;-4.00;99.90;;;;;;4367308;32;20140;-72
2021/01/15 10:18:58;;;;;;;22.30;10.53;;;-4.00;99.90;;;;;;4366027;32;20144;-72
2021/01/15 10:21:28;;;;;;;20.77;10.83;;;-4.00;99.30;;;;;;4365771;32;20221;-72
2021/01/15 10:23:57;;;;;;;23.80;11.00;;;-4.00;99.50;;;;;;4365741;32;20460;-72
2021/01/15 10:26:32;;;;;;;26.87;11.60;;;-4.00;99.30;;;;;;4365737;32;20184;-72
2021/01/15 10:29:05;;;;;;;22.93;10.37;;;-4.00;99.90;;;;;;4366309;32;20163;-72
2021/01/15 10:31:41;;;;;;;20.50;9.43;;;-4.10;99.20;;;;;;4365626;32;20124;-73
2021/01/15 10:34:08;;;;;;;19.77;9.60;;;-4.00;98.60;;;;;;4366926;32;20148;-71
2021/01/15 10:36:34;;;;;;;19.70;8.73;;;-4.00;98.10;;;;;;4366968;32;20522;-72
2021/01/15 10:39:01;;;;;;;19.27;8.67;;;-4.00;97.80;;;;;;4366917;32;20141;-72
2021/01/15 10:41:33;;;;;;;21.83;8.70;;;-4.00;97.20;;;;;;4366791;32;20166;-73
2021/01/15 10:44:01;;;;;;;16.97;8.17;;;-3.90;96.70;;;;;;4366740;32;20139;-73
2021/01/15 10:46:32;;;;;;;16.97;8.10;;;-4.00;96.40;;;;;;4366805;32;20171;-72
2021/01/15 10:49:00;;;;;;;15.40;7.10;;;-3.70;96.60;;;;;;4365384;32;20203;-72
2021/01/15 10:51:27;;;;;;;19.07;7.83;;;-3.70;95.50;;;;;;4366680;32;20160;-72
2021/01/15 10:53:54;;;;;;;18.93;7.40;;;-3.60;95.00;;;;;;4364991;32;20151;-70
2021/01/15 10:56:21;;;;;;;20.60;7.97;;;-3.60;94.80;;;;;;4366516;32;20136;-72
2021/01/15 10:58:47;;;;;;;14.43;7.40;;;-3.50;94.00;;;;;;4365122;32;20167;-72
2021/01/15 11:01:14;;;;;;;13.57;7.13;;;-3.50;94.50;;;;;;4365984;32;20144;-72
2021/01/15 11:03:42;;;;;;;15.53;7.80;;;-3.30;94.20;;;;;;4365097;32;20136;-72
2021/01/15 11:06:09;;;;;;;16.03;7.43;;;-3.30;93.40;;;;;;4366550;32;20140;-72
2021/01/15 11:08:35;;;;;;;16.97;7.47;;;-3.10;93.10;;;;;;4365599;32;20129;-72
2021/01/15 11:11:05;;;;;;;17.03;7.40;;;-3.20;92.30;;;;;;4364891;32;20150;-72
2021/01/15 11:13:32;;;;;;;18.70;7.33;;;-3.10;92.10;;;;;;4365040;32;20188;-72
2021/01/15 11:15:59;;;;;;;15.70;7.40;;;-3.10;91.60;;;;;;4366425;32;20402;-72
2021/01/15 11:18:25;;;;;;;15.53;7.53;;;-3.10;91.80;;;;;;4364877;32;20167;-72
2021/01/15 11:20:51;;;;;;;15.97;7.60;;;-3.10;91.90;;;;;;4364775;32;20154;-72
2021/01/15 11:23:18;;;;;;;18.20;8.43;;;-3.20;91.70;;;;;;4364773;32;20425;-72
2021/01/15 11:25:44;;;;;;;17.97;8.00;;;-3.30;92.40;;;;;;4366156;32;20226;-73
2021/01/15 11:28:11;;;;;;;16.93;8.00;;;-3.20;92.50;;;;;;4366412;32;20172;-72
2021/01/15 11:30:37;;;;;;;16.73;8.17;;;-3.20;91.60;;;;;;4364448;32;20542;-72
2021/01/15 11:33:04;;;;;;;17.93;8.03;;;-3.30;91.80;;;;;;4366151;32;20166;-72
2021/01/15 11:35:46;;;;;;;18.43;7.37;;;-3.30;92.10;;;;;;4366395;32;20149;-72
2021/01/15 11:38:13;;;;;;;15.70;7.50;;;-3.40;91.70;;;;;;4364558;32;20156;-72
2021/01/15 11:40:39;;;;;;;19.60;7.00;;;-3.30;92.20;;;;;;4365235;32;20208;-72
2021/01/15 11:43:06;;;;;;;15.83;7.37;;;-3.20;92.10;;;;;;4364850;32;20160;-72
2021/01/15 11:45:32;;;;;;;17.73;7.10;;;-3.30;92.20;;;;;;4365432;32;20199;-72
2021/01/15 11:47:59;;;;;;;16.33;7.33;;;-3.30;92.50;;;;;;4364376;32;20464;-72
2021/01/15 11:50:27;;;;;;;17.77;6.93;;;-3.30;92.50;;;;;;4365714;32;20194;-73
2021/01/15 11:52:57;;;;;;;14.80;6.90;;;-3.30;93.10;;;;;;4363824;32;20156;-72
2021/01/15 11:55:24;;;;;;;14.20;6.80;;;-3.50;93.50;;;;;;4365701;32;20167;-72
2021/01/15 11:57:52;;;;;;;17.23;7.80;;;-3.60;94.60;;;;;;4364338;32;20176;-73
2021/01/15 12:00:21;;;;;;;19.17;8.17;;;-3.50;95.20;;;;;;4366209;32;20137;-71
2021/01/15 12:02:48;;;;;;;16.17;7.63;;;-3.60;95.10;;;;;;4365513;32;20158;-72
2021/01/15 12:05:15;;;;;;;16.13;7.80;;;-3.60;95.80;;;;;;4365255;32;20159;-73
2021/01/15 12:07:41;;;;;;;16.13;7.60;;;-3.50;96.00;;;;;;4364353;32;20175;-72
2021/01/15 12:10:09;;;;;;;15.33;7.57;;;-3.40;95.70;;;;;;4364151;32;20152;-72
2021/01/15 12:12:39;;;;;;;16.60;7.43;;;-3.40;95.30;;;;;;4365634;32;20176;-72
2021/01/15 12:15:08;;;;;;;18.47;7.90;;;-3.40;95.70;;;;;;4364487;32;20187;-73
2021/01/15 12:17:34;;;;;;;19.27;8.37;;;-3.30;96.20;;;;;;4364815;32;20172;-72
2021/01/15 12:20:02;;;;;;;17.77;7.40;;;-3.20;96.40;;;;;;4365155;32;20188;-73
2021/01/15 12:22:28;;;;;;;14.83;7.13;;;-3.30;96.30;;;;;;4365744;32;20166;-73
2021/01/15 12:24:55;;;;;;;16.03;7.63;;;-3.40;97.10;;;;;;4365398;32;20176;-72
2021/01/15 12:27:22;;;;;;;19.00;7.83;;;-3.30;97.60;;;;;;4364855;32;20477;-72
2021/01/15 12:29:48;;;;;;;17.63;7.63;;;-3.40;97.70;;;;;;4365353;32;20136;-73
2021/01/15 12:32:15;;;;;;;18.93;7.60;;;-3.40;98.30;;;;;;4363969;32;20193;-72
2021/01/15 12:34:41;;;;;;;21.77;8.20;;;-3.30;99.00;;;;;;4363822;33;20141;-72
2021/01/15 12:37:08;;;;;;;20.70;8.07;;;-3.30;99.30;;;;;;4363785;33;20203;-72
2021/01/15 12:39:34;;;;;;;21.80;9.00;;;-3.20;99.00;;;;;;4363903;33;20246;-72
2021/01/15 12:42:01;;;;;;;21.17;8.90;;;-3.30;99.90;;;;;;4365730;33;20386;-72
2021/01/15 12:44:27;;;;;;;21.40;8.73;;;-3.30;99.90;;;;;;4363785;33;20168;-72
2021/01/15 12:46:54;;;;;;;22.77;9.60;;;-3.50;99.90;;;;;;4363914;33;20454;-72
2021/01/15 12:49:21;;;;;;;21.13;10.20;;;-3.50;99.90;;;;;;4363855;33;20128;-72
2021/01/15 12:51:47;;;;;;;25.63;10.97;;;-3.60;99.90;;;;;;4364038;33;20158;-72
2021/01/15 12:54:13;;;;;;;25.60;10.70;;;-3.70;99.90;;;;;;4363283;33;20270;-72